sensor_id;sensor_type;location;lat;lon;timestamp;P1;durP1;ratioP1;P2;durP2;ratioP2
12052;SDS011;6087;48.982;12.064;2023-03-21T00:01:05;6.00;;;4.70;;
12052;SDS011;6087;48.982;12.064;2023-03-21T00:03:33;5.33;;;4.70;;
12052;SDS011;6087;48.982;12.064;2023-03-21T00:06:06;6.57;;;4.23;;
12052;SDS011;6087;48.982;12.064;2023-03-21T00:08:35;6.13;;;3.73;;
12052;SDS011;6087;48.982;12.064;2023-03-21T00:11:04;6.07;;;4.60;;
12052;SDS011;6087;48.982;12.064;2023-03-21T00:13:32;7.90;;;4.40;;
12052;SDS011;6087;48.982;12.064;2023-03-21T00:16:03;4.77;;;4.20;;
12052;SDS011;6087;48.982;12.064;2023-03-21T00:18:32;6.97;;;4.27;;
12052;SDS011;6087;48.982;12.064;2023-03-21T00:21:23;5.87;;;4.33;;
12052;SDS011;6087;48.982;12.064;2023-03-21T00:23:56;5.90;;;4.53;;
12052;SDS011;6087;48.982;12.064;2023-03-21T00:26:25;4.80;;;4.03;;
12052;SDS011;6087;48.982;12.064;2023-03-21T00:28:52;9.13;;;4.70;;
12052;SDS011;6087;48.982;12.064;2023-03-21T00:31:20;4.90;;;4.10;;
12052;SDS011;6087;48.982;12.064;2023-03-21T00:33:51;4.73;;;4.23;;
12052;SDS011;6087;48.982;12.064;2023-03-21T00:36:23;4.27;;;3.70;;
12052;SDS011;6087;48.982;12.064;2023-03-21T00:38:53;4.97;;;4.07;;
12052;SDS011;6087;48.982;12.064;2023-03-21T00:41:20;5.10;;;4.07;;
12052;SDS011;6087;48.982;12.064;2023-03-21T00:43:51;7.13;;;3.80;;
12052;SDS011;6087;48.982;12.064;2023-03-21T00:46:19;6.00;;;4.50;;
12052;SDS011;6087;48.982;12.064;2023-03-21T00:48:50;7.50;;;4.43;;
12052;SDS011;6087;48.982;12.064;2023-03-21T00:51:21;6.63;;;4.30;;
12052;SDS011;6087;48.982;12.064;2023-03-21T00:53:53;5.10;;;4.23;;
12052;SDS011;6087;48.982;12.064;2023-03-21T00:56:25;6.93;;;4.67;;
12052;SDS011;6087;48.982;12.064;2023-03-21T00:58:52;4.87;;;4.37;;
12052;SDS011;6087;48.982;12.064;2023-03-21T01:01:19;4.33;;;3.93;;
12052;SDS011;6087;48.982;12.064;2023-03-21T01:03:50;6.27;;;4.70;;
12052;SDS011;6087;48.982;12.064;2023-03-21T01:06:29;6.67;;;4.43;;
12052;SDS011;6087;48.982;12.064;2023-03-21T01:08:56;6.90;;;5.07;;
12052;SDS011;6087;48.982;12.064;2023-03-21T01:11:25;7.07;;;5.10;;
12052;SDS011;6087;48.982;12.064;2023-03-21T01:13:54;6.27;;;4.80;;
12052;SDS011;6087;48.982;12.064;2023-03-21T01:16:21;6.73;;;5.03;;
12052;SDS011;6087;48.982;12.064;2023-03-21T01:18:49;8.03;;;5.20;;
12052;SDS011;6087;48.982;12.064;2023-03-21T01:21:17;6.87;;;5.40;;
12052;SDS011;6087;48.982;12.064;2023-03-21T01:23:46;4.90;;;4.40;;
12052;SDS011;6087;48.982;12.064;2023-03-21T01:26:16;5.77;;;5.10;;
12052;SDS011;6087;48.982;12.064;2023-03-21T01:28:53;5.37;;;4.60;;
12052;SDS011;6087;48.982;12.064;2023-03-21T01:31:21;6.00;;;4.83;;
12052;SDS011;6087;48.982;12.064;2023-03-21T01:33:48;7.93;;;5.53;;
12052;SDS011;6087;48.982;12.064;2023-03-21T01:36:16;6.03;;;4.73;;
12052;SDS011;6087;48.982;12.064;2023-03-21T01:38:47;10.13;;;5.43;;
12052;SDS011;6087;48.982;12.064;2023-03-21T01:41:17;5.87;;;4.57;;
12052;SDS011;6087;48.982;12.064;2023-03-21T01:43:47;7.83;;;4.80;;
12052;SDS011;6087;48.982;12.064;2023-03-21T01:46:22;5.97;;;4.50;;
12052;SDS011;6087;48.982;12.064;2023-03-21T01:49:06;4.77;;;4.23;;
12052;SDS011;6087;48.982;12.064;2023-03-21T01:51:41;6.23;;;4.70;;
12052;SDS011;6087;48.982;12.064;2023-03-21T01:54:15;5.33;;;4.70;;
12052;SDS011;6087;48.982;12.064;2023-03-21T01:56:48;5.70;;;4.53;;
12052;SDS011;6087;48.982;12.064;2023-03-21T01:59:20;5.27;;;4.53;;
12052;SDS011;6087;48.982;12.064;2023-03-21T02:01:52;5.93;;;4.50;;
12052;SDS011;6087;48.982;12.064;2023-03-21T02:04:20;6.60;;;5.40;;
12052;SDS011;6087;48.982;12.064;2023-03-21T02:06:53;6.37;;;5.03;;
12052;SDS011;6087;48.982;12.064;2023-03-21T02:09:27;4.93;;;4.43;;
12052;SDS011;6087;48.982;12.064;2023-03-21T02:11:57;6.13;;;4.93;;
12052;SDS011;6087;48.982;12.064;2023-03-21T02:14:25;5.73;;;5.07;;
12052;SDS011;6087;48.982;12.064;2023-03-21T02:16:55;5.57;;;5.00;;
12052;SDS011;6087;48.982;12.064;2023-03-21T02:25:38;5.47;;;4.70;;
12052;SDS011;6087;48.982;12.064;2023-03-21T02:28:22;5.33;;;4.83;;
12052;SDS011;6087;48.982;12.064;2023-03-21T02:31:08;6.77;;;5.23;;
12052;SDS011;6087;48.982;12.064;2023-03-21T02:33:49;5.43;;;4.87;;
12052;SDS011;6087;48.982;12.064;2023-03-21T02:39:30;6.00;;;4.97;;
12052;SDS011;6087;48.982;12.064;2023-03-21T02:42:08;6.27;;;4.80;;
12052;SDS011;6087;48.982;12.064;2023-03-21T02:44:43;6.70;;;5.03;;
12052;SDS011;6087;48.982;12.064;2023-03-21T02:47:16;7.10;;;5.37;;
12052;SDS011;6087;48.982;12.064;2023-03-21T02:49:49;5.93;;;5.33;;
12052;SDS011;6087;48.982;12.064;2023-03-21T02:52:22;5.63;;;5.10;;
12052;SDS011;6087;48.982;12.064;2023-03-21T02:54:52;6.83;;;5.40;;
12052;SDS011;6087;48.982;12.064;2023-03-21T02:57:22;5.80;;;5.20;;
12052;SDS011;6087;48.982;12.064;2023-03-21T02:59:49;5.60;;;5.10;;
12052;SDS011;6087;48.982;12.064;2023-03-21T03:02:18;7.10;;;5.30;;
12052;SDS011;6087;48.982;12.064;2023-03-21T03:04:48;8.67;;;5.90;;
12052;SDS011;6087;48.982;12.064;2023-03-21T03:07:20;6.43;;;5.57;;
12052;SDS011;6087;48.982;12.064;2023-03-21T03:10:02;7.20;;;5.30;;
12052;SDS011;6087;48.982;12.064;2023-03-21T03:12:49;5.60;;;5.10;;
12052;SDS011;6087;48.982;12.064;2023-03-21T03:15:27;6.20;;;5.40;;
12052;SDS011;6087;48.982;12.064;2023-03-21T03:18:08;6.20;;;5.60;;
12052;SDS011;6087;48.982;12.064;2023-03-21T03:20:47;6.30;;;5.37;;
12052;SDS011;6087;48.982;12.064;2023-03-21T03:23:26;9.27;;;6.00;;
12052;SDS011;6087;48.982;12.064;2023-03-21T03:25:55;5.87;;;5.27;;
12052;SDS011;6087;48.982;12.064;2023-03-21T03:28:29;7.47;;;5.80;;
12052;SDS011;6087;48.982;12.064;2023-03-21T03:30:58;7.00;;;5.30;;
12052;SDS011;6087;48.982;12.064;2023-03-21T03:33:27;7.10;;;4.97;;
12052;SDS011;6087;48.982;12.064;2023-03-21T03:35:55;10.13;;;5.80;;
12052;SDS011;6087;48.982;12.064;2023-03-21T03:38:26;7.67;;;5.50;;
12052;SDS011;6087;48.982;12.064;2023-03-21T03:40:56;8.23;;;5.73;;
12052;SDS011;6087;48.982;12.064;2023-03-21T03:43:29;6.57;;;5.77;;
12052;SDS011;6087;48.982;12.064;2023-03-21T03:46:01;6.63;;;6.00;;
12052;SDS011;6087;48.982;12.064;2023-03-21T03:48:48;5.83;;;5.23;;
12052;SDS011;6087;48.982;12.064;2023-03-21T03:51:20;6.70;;;5.77;;
12052;SDS011;6087;48.982;12.064;2023-03-21T03:53:51;8.30;;;5.67;;
12052;SDS011;6087;48.982;12.064;2023-03-21T03:56:22;6.60;;;5.27;;
12052;SDS011;6087;48.982;12.064;2023-03-21T03:58:51;7.03;;;5.10;;
12052;SDS011;6087;48.982;12.064;2023-03-21T04:01:18;5.93;;;5.33;;
12052;SDS011;6087;48.982;12.064;2023-03-21T04:03:46;6.17;;;5.30;;
12052;SDS011;6087;48.982;12.064;2023-03-21T04:06:14;7.40;;;5.27;;
12052;SDS011;6087;48.982;12.064;2023-03-21T04:08:41;5.63;;;5.13;;
12052;SDS011;6087;48.982;12.064;2023-03-21T04:11:11;9.07;;;6.90;;
12052;SDS011;6087;48.982;12.064;2023-03-21T04:13:40;6.30;;;5.70;;
12052;SDS011;6087;48.982;12.064;2023-03-21T04:16:07;5.83;;;5.20;;
12052;SDS011;6087;48.982;12.064;2023-03-21T04:18:35;6.37;;;5.43;;
12052;SDS011;6087;48.982;12.064;2023-03-21T04:21:06;6.93;;;5.13;;
12052;SDS011;6087;48.982;12.064;2023-03-21T04:23:34;7.03;;;5.83;;
12052;SDS011;6087;48.982;12.064;2023-03-21T04:26:02;7.27;;;5.57;;
12052;SDS011;6087;48.982;12.064;2023-03-21T04:28:31;7.83;;;5.80;;
12052;SDS011;6087;48.982;12.064;2023-03-21T04:31:03;7.70;;;5.97;;
12052;SDS011;6087;48.982;12.064;2023-03-21T04:33:31;6.67;;;5.83;;
12052;SDS011;6087;48.982;12.064;2023-03-21T04:36:02;6.37;;;5.77;;
12052;SDS011;6087;48.982;12.064;2023-03-21T04:38:31;8.30;;;5.50;;
12052;SDS011;6087;48.982;12.064;2023-03-21T04:40:58;6.13;;;5.53;;
12052;SDS011;6087;48.982;12.064;2023-03-21T04:43:26;10.97;;;6.07;;
12052;SDS011;6087;48.982;12.064;2023-03-21T04:45:55;7.33;;;5.73;;
12052;SDS011;6087;48.982;12.064;2023-03-21T04:48:21;5.93;;;5.33;;
12052;SDS011;6087;48.982;12.064;2023-03-21T04:50:49;6.10;;;5.23;;
12052;SDS011;6087;48.982;12.064;2023-03-21T04:53:16;6.77;;;5.93;;
12052;SDS011;6087;48.982;12.064;2023-03-21T04:55:44;7.43;;;5.67;;
12052;SDS011;6087;48.982;12.064;2023-03-21T04:58:17;7.37;;;6.17;;
12052;SDS011;6087;48.982;12.064;2023-03-21T05:00:44;7.27;;;6.23;;
12052;SDS011;6087;48.982;12.064;2023-03-21T05:03:13;6.70;;;5.67;;
12052;SDS011;6087;48.982;12.064;2023-03-21T05:05:43;6.90;;;5.70;;
12052;SDS011;6087;48.982;12.064;2023-03-21T05:08:10;6.93;;;6.00;;
12052;SDS011;6087;48.982;12.064;2023-03-21T05:10:37;6.03;;;5.27;;
12052;SDS011;6087;48.982;12.064;2023-03-21T05:13:05;6.73;;;5.60;;
12052;SDS011;6087;48.982;12.064;2023-03-21T05:15:36;6.33;;;5.73;;
12052;SDS011;6087;48.982;12.064;2023-03-21T05:18:05;8.83;;;6.67;;
12052;SDS011;6087;48.982;12.064;2023-03-21T05:20:38;6.30;;;5.70;;
12052;SDS011;6087;48.982;12.064;2023-03-21T05:23:07;7.80;;;6.17;;
12052;SDS011;6087;48.982;12.064;2023-03-21T05:25:35;7.47;;;6.30;;
12052;SDS011;6087;48.982;12.064;2023-03-21T05:28:02;9.20;;;6.17;;
12052;SDS011;6087;48.982;12.064;2023-03-21T05:30:29;8.50;;;6.17;;
12052;SDS011;6087;48.982;12.064;2023-03-21T05:32:57;7.30;;;6.60;;
12052;SDS011;6087;48.982;12.064;2023-03-21T05:35:25;6.27;;;5.67;;
12052;SDS011;6087;48.982;12.064;2023-03-21T05:37:53;8.73;;;5.93;;
12052;SDS011;6087;48.982;12.064;2023-03-21T05:40:20;7.33;;;6.00;;
12052;SDS011;6087;48.982;12.064;2023-03-21T05:42:47;7.87;;;6.50;;
12052;SDS011;6087;48.982;12.064;2023-03-21T05:45:14;6.93;;;6.23;;
12052;SDS011;6087;48.982;12.064;2023-03-21T05:47:41;8.17;;;6.67;;
12052;SDS011;6087;48.982;12.064;2023-03-21T05:50:09;6.57;;;5.50;;
12052;SDS011;6087;48.982;12.064;2023-03-21T05:52:40;7.93;;;6.03;;
12052;SDS011;6087;48.982;12.064;2023-03-21T05:55:15;6.97;;;6.27;;
12052;SDS011;6087;48.982;12.064;2023-03-21T05:57:42;8.90;;;6.10;;
12052;SDS011;6087;48.982;12.064;2023-03-21T06:00:10;7.33;;;6.63;;
12052;SDS011;6087;48.982;12.064;2023-03-21T06:02:38;6.67;;;5.57;;
12052;SDS011;6087;48.982;12.064;2023-03-21T06:05:05;6.97;;;5.17;;
12052;SDS011;6087;48.982;12.064;2023-03-21T06:07:33;7.40;;;5.97;;
12052;SDS011;6087;48.982;12.064;2023-03-21T06:10:01;6.57;;;5.83;;
12052;SDS011;6087;48.982;12.064;2023-03-21T06:12:30;7.77;;;5.87;;
12052;SDS011;6087;48.982;12.064;2023-03-21T06:14:57;7.30;;;6.60;;
12052;SDS011;6087;48.982;12.064;2023-03-21T06:17:23;8.17;;;5.90;;
12052;SDS011;6087;48.982;12.064;2023-03-21T06:19:50;6.43;;;5.40;;
12052;SDS011;6087;48.982;12.064;2023-03-21T06:22:26;8.87;;;6.57;;
12052;SDS011;6087;48.982;12.064;2023-03-21T06:24:53;8.17;;;7.33;;
12052;SDS011;6087;48.982;12.064;2023-03-21T06:27:20;10.97;;;6.90;;
12052;SDS011;6087;48.982;12.064;2023-03-21T06:29:48;8.23;;;6.60;;
12052;SDS011;6087;48.982;12.064;2023-03-21T06:32:18;8.00;;;6.80;;
12052;SDS011;6087;48.982;12.064;2023-03-21T06:34:48;7.03;;;6.33;;
12052;SDS011;6087;48.982;12.064;2023-03-21T06:37:18;11.73;;;7.30;;
12052;SDS011;6087;48.982;12.064;2023-03-21T06:39:45;8.73;;;7.17;;
12052;SDS011;6087;48.982;12.064;2023-03-21T06:42:12;7.70;;;6.07;;
12052;SDS011;6087;48.982;12.064;2023-03-21T06:44:39;9.60;;;6.60;;
12052;SDS011;6087;48.982;12.064;2023-03-21T06:47:13;10.80;;;6.40;;
12052;SDS011;6087;48.982;12.064;2023-03-21T06:49:40;7.50;;;5.83;;
12052;SDS011;6087;48.982;12.064;2023-03-21T06:52:08;8.40;;;6.10;;
12052;SDS011;6087;48.982;12.064;2023-03-21T06:54:35;7.40;;;6.17;;
12052;SDS011;6087;48.982;12.064;2023-03-21T06:57:06;9.83;;;6.57;;
12052;SDS011;6087;48.982;12.064;2023-03-21T06:59:33;7.67;;;6.33;;
12052;SDS011;6087;48.982;12.064;2023-03-21T07:02:00;6.70;;;5.90;;
12052;SDS011;6087;48.982;12.064;2023-03-21T07:04:31;8.00;;;5.57;;
12052;SDS011;6087;48.982;12.064;2023-03-21T07:07:03;7.67;;;6.27;;
12052;SDS011;6087;48.982;12.064;2023-03-21T07:09:30;7.60;;;5.93;;
12052;SDS011;6087;48.982;12.064;2023-03-21T07:11:57;6.50;;;5.77;;
12052;SDS011;6087;48.982;12.064;2023-03-21T07:14:24;6.47;;;5.77;;
12052;SDS011;6087;48.982;12.064;2023-03-21T07:16:51;8.70;;;5.87;;
12052;SDS011;6087;48.982;12.064;2023-03-21T07:19:18;7.70;;;5.97;;
12052;SDS011;6087;48.982;12.064;2023-03-21T07:21:46;7.03;;;5.40;;
12052;SDS011;6087;48.982;12.064;2023-03-21T07:24:16;7.33;;;6.50;;
12052;SDS011;6087;48.982;12.064;2023-03-21T07:26:43;5.83;;;5.23;;
12052;SDS011;6087;48.982;12.064;2023-03-21T07:29:10;6.43;;;5.20;;
12052;SDS011;6087;48.982;12.064;2023-03-21T07:31:45;6.13;;;5.53;;
12052;SDS011;6087;48.982;12.064;2023-03-21T07:34:12;8.50;;;5.80;;
12052;SDS011;6087;48.982;12.064;2023-03-21T07:36:42;8.50;;;5.33;;
12052;SDS011;6087;48.982;12.064;2023-03-21T07:39:14;6.73;;;4.87;;
12052;SDS011;6087;48.982;12.064;2023-03-21T07:41:42;6.87;;;5.47;;
12052;SDS011;6087;48.982;12.064;2023-03-21T07:44:08;6.67;;;5.10;;
12052;SDS011;6087;48.982;12.064;2023-03-21T07:46:36;6.40;;;5.00;;
12052;SDS011;6087;48.982;12.064;2023-03-21T07:49:03;8.37;;;5.77;;
12052;SDS011;6087;48.982;12.064;2023-03-21T07:51:30;7.60;;;5.40;;
12052;SDS011;6087;48.982;12.064;2023-03-21T07:54:00;7.90;;;5.20;;
12052;SDS011;6087;48.982;12.064;2023-03-21T07:56:27;8.20;;;5.20;;
12052;SDS011;6087;48.982;12.064;2023-03-21T07:58:54;6.60;;;5.27;;
12052;SDS011;6087;48.982;12.064;2023-03-21T08:01:21;6.83;;;4.33;;
12052;SDS011;6087;48.982;12.064;2023-03-21T08:03:48;6.30;;;4.70;;
12052;SDS011;6087;48.982;12.064;2023-03-21T08:06:17;7.07;;;4.27;;
12052;SDS011;6087;48.982;12.064;2023-03-21T08:08:45;5.83;;;4.23;;
12052;SDS011;6087;48.982;12.064;2023-03-21T08:11:13;8.17;;;4.30;;
12052;SDS011;6087;48.982;12.064;2023-03-21T08:13:40;4.93;;;4.23;;
12052;SDS011;6087;48.982;12.064;2023-03-21T08:16:07;5.03;;;4.00;;
12052;SDS011;6087;48.982;12.064;2023-03-21T08:18:34;5.43;;;3.40;;
12052;SDS011;6087;48.982;12.064;2023-03-21T08:21:01;5.90;;;3.53;;
12052;SDS011;6087;48.982;12.064;2023-03-21T08:23:29;5.88;;;3.25;;
12052;SDS011;6087;48.982;12.064;2023-03-21T08:25:56;7.13;;;4.40;;
12052;SDS011;6087;48.982;12.064;2023-03-21T08:28:24;5.63;;;3.60;;
12052;SDS011;6087;48.982;12.064;2023-03-21T08:30:51;4.75;;;3.28;;
12052;SDS011;6087;48.982;12.064;2023-03-21T08:33:18;3.47;;;2.97;;
12052;SDS011;6087;48.982;12.064;2023-03-21T08:35:45;3.53;;;2.75;;
12052;SDS011;6087;48.982;12.064;2023-03-21T08:38:12;3.95;;;2.92;;
12052;SDS011;6087;48.982;12.064;2023-03-21T08:40:40;3.90;;;2.95;;
12052;SDS011;6087;48.982;12.064;2023-03-21T08:43:07;2.75;;;2.53;;
12052;SDS011;6087;48.982;12.064;2023-03-21T08:45:35;5.30;;;2.40;;
12052;SDS011;6087;48.982;12.064;2023-03-21T08:48:02;5.45;;;3.10;;
12052;SDS011;6087;48.982;12.064;2023-03-21T08:50:29;3.20;;;2.90;;
12052;SDS011;6087;48.982;12.064;2023-03-21T08:52:56;4.85;;;2.90;;
12052;SDS011;6087;48.982;12.064;2023-03-21T08:55:23;4.68;;;2.83;;
12052;SDS011;6087;48.982;12.064;2023-03-21T08:57:50;6.35;;;2.47;;
12052;SDS011;6087;48.982;12.064;2023-03-21T09:00:17;5.78;;;2.60;;
12052;SDS011;6087;48.982;12.064;2023-03-21T09:02:48;3.60;;;2.10;;
12052;SDS011;6087;48.982;12.064;2023-03-21T09:05:16;2.75;;;2.05;;
12052;SDS011;6087;48.982;12.064;2023-03-21T09:07:44;3.22;;;2.30;;
12052;SDS011;6087;48.982;12.064;2023-03-21T09:10:11;3.05;;;2.20;;
12052;SDS011;6087;48.982;12.064;2023-03-21T09:12:40;3.42;;;2.05;;
12052;SDS011;6087;48.982;12.064;2023-03-21T09:15:07;4.45;;;2.40;;
12052;SDS011;6087;48.982;12.064;2023-03-21T09:17:36;3.05;;;2.03;;
12052;SDS011;6087;48.982;12.064;2023-03-21T09:20:10;6.88;;;2.28;;
12052;SDS011;6087;48.982;12.064;2023-03-21T09:22:43;4.75;;;2.38;;
12052;SDS011;6087;48.982;12.064;2023-03-21T09:25:10;4.07;;;1.98;;
12052;SDS011;6087;48.982;12.064;2023-03-21T09:27:38;3.63;;;2.00;;
12052;SDS011;6087;48.982;12.064;2023-03-21T09:30:05;3.70;;;2.25;;
12052;SDS011;6087;48.982;12.064;2023-03-21T09:32:34;3.75;;;2.17;;
12052;SDS011;6087;48.982;12.064;2023-03-21T09:35:01;2.40;;;1.73;;
12052;SDS011;6087;48.982;12.064;2023-03-21T09:37:34;3.60;;;2.10;;
12052;SDS011;6087;48.982;12.064;2023-03-21T09:40:02;2.65;;;1.77;;
12052;SDS011;6087;48.982;12.064;2023-03-21T09:42:32;4.30;;;2.45;;
12052;SDS011;6087;48.982;12.064;2023-03-21T09:45:11;2.15;;;1.88;;
12052;SDS011;6087;48.982;12.064;2023-03-21T09:47:45;2.38;;;1.90;;
12052;SDS011;6087;48.982;12.064;2023-03-21T09:50:18;2.80;;;1.70;;
12052;SDS011;6087;48.982;12.064;2023-03-21T09:52:53;4.22;;;2.28;;
12052;SDS011;6087;48.982;12.064;2023-03-21T09:55:22;1.98;;;1.50;;
12052;SDS011;6087;48.982;12.064;2023-03-21T09:57:56;4.05;;;2.05;;
12052;SDS011;6087;48.982;12.064;2023-03-21T10:00:31;3.47;;;2.00;;
12052;SDS011;6087;48.982;12.064;2023-03-21T10:03:04;3.58;;;1.88;;
12052;SDS011;6087;48.982;12.064;2023-03-21T10:05:39;2.45;;;2.00;;
12052;SDS011;6087;48.982;12.064;2023-03-21T10:08:11;3.45;;;2.15;;
12052;SDS011;6087;48.982;12.064;2023-03-21T10:10:44;6.68;;;1.90;;
12052;SDS011;6087;48.982;12.064;2023-03-21T10:13:14;5.38;;;1.98;;
12052;SDS011;6087;48.982;12.064;2023-03-21T10:15:46;2.45;;;2.15;;
12052;SDS011;6087;48.982;12.064;2023-03-21T10:18:15;2.78;;;2.10;;
12052;SDS011;6087;48.982;12.064;2023-03-21T10:20:46;5.15;;;2.85;;
12052;SDS011;6087;48.982;12.064;2023-03-21T10:23:16;2.85;;;2.10;;
12052;SDS011;6087;48.982;12.064;2023-03-21T10:25:47;3.80;;;2.38;;
12052;SDS011;6087;48.982;12.064;2023-03-21T10:28:17;3.25;;;2.85;;
12052;SDS011;6087;48.982;12.064;2023-03-21T10:30:46;5.13;;;3.38;;
12052;SDS011;6087;48.982;12.064;2023-03-21T10:33:16;4.63;;;3.95;;
12052;SDS011;6087;48.982;12.064;2023-03-21T10:35:48;4.70;;;3.50;;
12052;SDS011;6087;48.982;12.064;2023-03-21T10:38:18;4.45;;;3.85;;
12052;SDS011;6087;48.982;12.064;2023-03-21T10:40:48;3.97;;;3.03;;
12052;SDS011;6087;48.982;12.064;2023-03-21T10:46:04;5.22;;;4.13;;
12052;SDS011;6087;48.982;12.064;2023-03-21T10:48:34;4.13;;;3.72;;
12052;SDS011;6087;48.982;12.064;2023-03-21T10:51:02;4.30;;;3.65;;
12052;SDS011;6087;48.982;12.064;2023-03-21T10:53:37;6.32;;;4.20;;
12052;SDS011;6087;48.982;12.064;2023-03-21T10:56:06;11.82;;;4.10;;
12052;SDS011;6087;48.982;12.064;2023-03-21T10:58:35;4.97;;;4.32;;
12052;SDS011;6087;48.982;12.064;2023-03-21T11:01:10;4.30;;;3.35;;
12052;SDS011;6087;48.982;12.064;2023-03-21T11:03:41;5.00;;;4.15;;
12052;SDS011;6087;48.982;12.064;2023-03-21T11:06:15;5.35;;;3.63;;
12052;SDS011;6087;48.982;12.064;2023-03-21T11:08:50;5.60;;;4.30;;
12052;SDS011;6087;48.982;12.064;2023-03-21T11:11:23;4.38;;;3.20;;
12052;SDS011;6087;48.982;12.064;2023-03-21T11:13:56;5.55;;;3.67;;
12052;SDS011;6087;48.982;12.064;2023-03-21T11:16:25;3.90;;;3.38;;
12052;SDS011;6087;48.982;12.064;2023-03-21T11:19:00;4.68;;;4.05;;
12052;SDS011;6087;48.982;12.064;2023-03-21T11:21:33;4.38;;;3.55;;
12052;SDS011;6087;48.982;12.064;2023-03-21T11:24:03;4.68;;;3.13;;
12052;SDS011;6087;48.982;12.064;2023-03-21T11:26:31;4.72;;;3.70;;
12052;SDS011;6087;48.982;12.064;2023-03-21T11:29:05;5.88;;;3.10;;
12052;SDS011;6087;48.982;12.064;2023-03-21T11:31:40;5.35;;;3.90;;
12052;SDS011;6087;48.982;12.064;2023-03-21T11:34:10;4.28;;;3.80;;
12052;SDS011;6087;48.982;12.064;2023-03-21T11:36:51;4.00;;;3.45;;
12052;SDS011;6087;48.982;12.064;2023-03-21T11:39:31;5.13;;;4.15;;
12052;SDS011;6087;48.982;12.064;2023-03-21T11:42:01;4.35;;;3.95;;
12052;SDS011;6087;48.982;12.064;2023-03-21T11:44:30;3.60;;;3.20;;
12052;SDS011;6087;48.982;12.064;2023-03-21T11:46:58;4.97;;;3.97;;
12052;SDS011;6087;48.982;12.064;2023-03-21T11:49:26;5.53;;;4.13;;
12052;SDS011;6087;48.982;12.064;2023-03-21T11:51:59;6.45;;;3.88;;
12052;SDS011;6087;48.982;12.064;2023-03-21T11:54:35;4.43;;;3.30;;
12052;SDS011;6087;48.982;12.064;2023-03-21T11:57:16;4.38;;;3.50;;
12052;SDS011;6087;48.982;12.064;2023-03-21T11:59:49;4.82;;;3.50;;
12052;SDS011;6087;48.982;12.064;2023-03-21T12:02:34;4.22;;;3.55;;
12052;SDS011;6087;48.982;12.064;2023-03-21T12:05:20;6.28;;;3.75;;
12052;SDS011;6087;48.982;12.064;2023-03-21T12:07:52;5.47;;;3.45;;
12052;SDS011;6087;48.982;12.064;2023-03-21T12:10:32;3.78;;;3.10;;
12052;SDS011;6087;48.982;12.064;2023-03-21T12:13:25;5.07;;;3.40;;
12052;SDS011;6087;48.982;12.064;2023-03-21T12:16:08;4.85;;;3.17;;
12052;SDS011;6087;48.982;12.064;2023-03-21T12:18:55;4.13;;;3.20;;
12052;SDS011;6087;48.982;12.064;2023-03-21T12:21:32;3.70;;;3.40;;
12052;SDS011;6087;48.982;12.064;2023-03-21T12:24:03;4.75;;;4.10;;
12052;SDS011;6087;48.982;12.064;2023-03-21T12:26:39;2.60;;;2.40;;
12052;SDS011;6087;48.982;12.064;2023-03-21T12:29:22;2.80;;;2.50;;
12052;SDS011;6087;48.982;12.064;2023-03-21T12:32:00;3.95;;;2.92;;
12052;SDS011;6087;48.982;12.064;2023-03-21T12:34:43;3.40;;;3.00;;
12052;SDS011;6087;48.982;12.064;2023-03-21T12:37:20;2.92;;;2.53;;
12052;SDS011;6087;48.982;12.064;2023-03-21T12:39:54;2.33;;;2.13;;
12052;SDS011;6087;48.982;12.064;2023-03-21T12:42:45;8.07;;;6.85;;
12052;SDS011;6087;48.982;12.064;2023-03-21T12:45:31;2.28;;;2.08;;
12052;SDS011;6087;48.982;12.064;2023-03-21T12:48:10;3.25;;;2.20;;
12052;SDS011;6087;48.982;12.064;2023-03-21T12:50:43;2.70;;;2.50;;
12052;SDS011;6087;48.982;12.064;2023-03-21T12:53:18;4.95;;;2.95;;
12052;SDS011;6087;48.982;12.064;2023-03-21T12:56:00;3.20;;;2.90;;
12052;SDS011;6087;48.982;12.064;2023-03-21T12:58:32;2.65;;;2.17;;
12052;SDS011;6087;48.982;12.064;2023-03-21T13:01:04;3.03;;;2.55;;
12052;SDS011;6087;48.982;12.064;2023-03-21T13:03:34;2.45;;;2.17;;
12052;SDS011;6087;48.982;12.064;2023-03-21T13:06:06;2.83;;;2.33;;
12052;SDS011;6087;48.982;12.064;2023-03-21T13:08:36;2.92;;;2.65;;
12052;SDS011;6087;48.982;12.064;2023-03-21T13:11:06;3.25;;;2.85;;
12052;SDS011;6087;48.982;12.064;2023-03-21T13:13:41;2.78;;;2.58;;
12052;SDS011;6087;48.982;12.064;2023-03-21T13:16:12;2.97;;;2.75;;
12052;SDS011;6087;48.982;12.064;2023-03-21T13:18:46;3.40;;;3.08;;
12052;SDS011;6087;48.982;12.064;2023-03-21T13:21:24;3.22;;;2.67;;
12052;SDS011;6087;48.982;12.064;2023-03-21T13:24:02;3.28;;;2.97;;
12052;SDS011;6087;48.982;12.064;2023-03-21T13:26:35;3.22;;;2.95;;
12052;SDS011;6087;48.982;12.064;2023-03-21T13:29:12;3.47;;;3.17;;
12052;SDS011;6087;48.982;12.064;2023-03-21T13:31:48;3.15;;;2.92;;
12052;SDS011;6087;48.982;12.064;2023-03-21T13:34:19;4.50;;;2.85;;
12052;SDS011;6087;48.982;12.064;2023-03-21T13:36:48;3.10;;;2.40;;
12052;SDS011;6087;48.982;12.064;2023-03-21T13:39:17;2.92;;;2.63;;
12052;SDS011;6087;48.982;12.064;2023-03-21T13:41:46;2.58;;;2.30;;
12052;SDS011;6087;48.982;12.064;2023-03-21T13:47:05;2.20;;;2.05;;
12052;SDS011;6087;48.982;12.064;2023-03-21T13:50:13;2.55;;;2.35;;
12052;SDS011;6087;48.982;12.064;2023-03-21T13:55:59;3.13;;;2.22;;
12052;SDS011;6087;48.982;12.064;2023-03-21T13:58:52;2.00;;;1.90;;
12052;SDS011;6087;48.982;12.064;2023-03-21T14:01:35;2.47;;;2.28;;
12052;SDS011;6087;48.982;12.064;2023-03-21T14:04:09;2.85;;;2.65;;
12052;SDS011;6087;48.982;12.064;2023-03-21T14:06:43;3.75;;;2.95;;
12052;SDS011;6087;48.982;12.064;2023-03-21T14:09:21;4.57;;;2.92;;
12052;SDS011;6087;48.982;12.064;2023-03-21T14:11:53;3.28;;;2.97;;
12052;SDS011;6087;48.982;12.064;2023-03-21T14:14:23;3.35;;;3.05;;
12052;SDS011;6087;48.982;12.064;2023-03-21T14:16:56;3.63;;;2.25;;
12052;SDS011;6087;48.982;12.064;2023-03-21T14:19:28;2.30;;;2.10;;
12052;SDS011;6087;48.982;12.064;2023-03-21T14:21:57;2.38;;;1.90;;
12052;SDS011;6087;48.982;12.064;2023-03-21T14:24:24;3.75;;;2.17;;
12052;SDS011;6087;48.982;12.064;2023-03-21T14:26:52;1.88;;;1.50;;
12052;SDS011;6087;48.982;12.064;2023-03-21T14:29:22;2.47;;;1.95;;
12052;SDS011;6087;48.982;12.064;2023-03-21T14:31:51;2.08;;;1.67;;
12052;SDS011;6087;48.982;12.064;2023-03-21T14:34:25;2.50;;;2.10;;
12052;SDS011;6087;48.982;12.064;2023-03-21T14:36:55;2.28;;;2.00;;
12052;SDS011;6087;48.982;12.064;2023-03-21T14:39:23;3.00;;;1.88;;
12052;SDS011;6087;48.982;12.064;2023-03-21T14:41:54;2.38;;;2.17;;
12052;SDS011;6087;48.982;12.064;2023-03-21T14:44:23;2.53;;;2.33;;
12052;SDS011;6087;48.982;12.064;2023-03-21T14:47:01;2.90;;;2.60;;
12052;SDS011;6087;48.982;12.064;2023-03-21T14:49:31;4.68;;;2.53;;
12052;SDS011;6087;48.982;12.064;2023-03-21T14:52:00;2.85;;;2.65;;
12052;SDS011;6087;48.982;12.064;2023-03-21T14:54:29;5.68;;;2.10;;
12052;SDS011;6087;48.982;12.064;2023-03-21T14:56:58;3.28;;;2.35;;
12052;SDS011;6087;48.982;12.064;2023-03-21T14:59:28;3.38;;;2.20;;
12052;SDS011;6087;48.982;12.064;2023-03-21T15:02:00;2.25;;;2.10;;
12052;SDS011;6087;48.982;12.064;2023-03-21T15:04:34;2.55;;;2.35;;
12052;SDS011;6087;48.982;12.064;2023-03-21T15:07:04;3.45;;;2.35;;
12052;SDS011;6087;48.982;12.064;2023-03-21T15:09:33;2.38;;;2.17;;
12052;SDS011;6087;48.982;12.064;2023-03-21T15:12:01;2.90;;;2.30;;
12052;SDS011;6087;48.982;12.064;2023-03-21T15:14:34;2.97;;;2.33;;
12052;SDS011;6087;48.982;12.064;2023-03-21T15:17:02;2.40;;;2.20;;
12052;SDS011;6087;48.982;12.064;2023-03-21T15:19:32;2.90;;;2.60;;
12052;SDS011;6087;48.982;12.064;2023-03-21T15:22:05;2.75;;;2.42;;
12052;SDS011;6087;48.982;12.064;2023-03-21T15:24:36;3.88;;;2.63;;
12052;SDS011;6087;48.982;12.064;2023-03-21T15:27:07;2.65;;;2.30;;
12052;SDS011;6087;48.982;12.064;2023-03-21T15:29:43;3.28;;;2.60;;